Time,TemperatureF,DewpointF,PressureIn,WindDirection,WindDirectionDegrees,WindSpeedMPH,WindSpeedGustMPH,Humidity,HourlyPrecipIn,Conditions,Clouds,dailyrainin,SoftwareType,DateUTC
2013-01-31 00:03:00,46.1,41.5,30.32,SSE,147,2.0,2.0,84,0.00,,---,0.00,VWS V14.01,2013-01-31 08:03:00,
2013-01-31 00:08:00,46.0,41.4,30.32,SSE,147,2.0,3.0,84,0.00,,---,0.00,VWS V14.01,2013-01-31 08:08:00,
2013-01-31 00:14:00,45.9,41.3,30.32,SSE,147,2.0,3.0,84,0.00,,---,0.00,VWS V14.01,2013-01-31 08:14:00,
2013-01-31 00:19:00,45.8,41.5,30.32,SSE,147,2.0,3.0,85,0.00,,---,0.00,VWS V14.01,2013-01-31 08:19:00,
2013-01-31 00:24:00,45.7,41.5,30.32,SSE,147,2.0,3.0,85,0.00,,---,0.00,VWS V14.01,2013-01-31 08:24:00,
2013-01-31 00:30:00,45.5,41.3,30.32,SSE,147,3.0,3.0,85,0.00,,---,0.00,VWS V14.01,2013-01-31 08:30:00,
2013-01-31 00:35:00,45.4,41.2,30.32,SE,144,2.0,3.0,85,0.00,,---,0.00,VWS V14.01,2013-01-31 08:35:00,
2013-01-31 00:40:00,45.4,41.2,30.32,SE,145,3.0,3.0,85,0.00,,---,0.00,VWS V14.01,2013-01-31 08:40:00,
2013-01-31 00:45:00,45.4,41.5,30.32,SE,142,3.0,3.0,86,0.00,,---,0.00,VWS V14.01,2013-01-31 08:45:00,
2013-01-31 00:51:00,45.3,41.4,30.32,SE,140,1.0,3.0,86,0.00,,---,0.00,VWS V14.01,2013-01-31 08:51:00,
2013-01-31 00:56:00,45.3,41.4,30.31,SE,140,2.0,3.0,86,0.00,,---,0.00,VWS V14.01,2013-01-31 08:56:00,
2013-01-31 01:01:00,45.3,41.4,30.31,SE,140,3.0,3.0,86,0.00,,---,0.00,VWS V14.01,2013-01-31 09:01:00,
2013-01-31 01:06:00,45.3,41.4,30.31,SE,140,3.0,3.0,86,0.00,,---,0.00,VWS V14.01,2013-01-31 09:06:00,
2013-01-31 01:11:00,45.2,41.3,30.31,SE,140,3.0,3.0,86,0.00,,---,0.00,VWS V14.01,2013-01-31 09:11:00,
2013-01-31 01:16:00,45.2,41.3,30.31,SE,140,1.0,3.0,86,0.00,,---,0.00,VWS V14.01,2013-01-31 09:16:00,
2013-01-31 01:21:00,45.1,41.2,30.31,SE,140,2.0,3.0,86,0.00,,---,0.00,VWS V14.01,2013-01-31 09:21:00,
2013-01-31 01:27:00,45.1,41.2,30.31,SE,140,2.0,3.0,86,0.00,,---,0.00,VWS V14.01,2013-01-31 09:27:00,
2013-01-31 01:32:00,45.1,41.2,30.31,SE,140,2.0,2.0,86,0.00,,---,0.00,VWS V14.01,2013-01-31 09:32:00,
2013-01-31 01:37:00,45.1,41.2,30.31,SE,140,2.0,2.0,86,0.00,,---,0.00,VWS V14.01,2013-01-31 09:37:00,
2013-01-31 01:42:00,45.0,41.1,30.31,SE,140,0.0,3.0,86,0.00,,---,0.00,VWS V14.01,2013-01-31 09:42:00,
2013-01-31 01:47:00,45.0,41.1,30.31,SE,140,0.0,0.0,86,0.00,,---,0.00,VWS V14.01,2013-01-31 09:47:00,
2013-01-31 01:53:00,44.9,41.0,30.31,SE,140,1.0,2.0,86,0.00,,---,0.00,VWS V14.01,2013-01-31 09:53:00,
2013-01-31 01:58:00,44.8,40.9,30.31,SE,140,2.0,3.0,86,0.00,,---,0.00,VWS V14.01,2013-01-31 09:58:00,
2013-01-31 02:03:00,44.7,41.1,30.31,SE,140,2.0,3.0,87,0.00,,---,0.00,VWS V14.01,2013-01-31 10:03:00,
2013-01-31 02:08:00,44.7,40.8,30.31,SE,140,2.0,2.0,86,0.00,,---,0.00,VWS V14.01,2013-01-31 10:08:00,
2013-01-31 02:13:00,44.5,40.6,30.31,SE,140,2.0,2.0,86,0.00,,---,0.00,VWS V14.01,2013-01-31 10:13:00,
2013-01-31 02:18:00,44.4,40.8,30.31,SE,140,3.0,3.0,87,0.00,,---,0.00,VWS V14.01,2013-01-31 10:18:00,
2013-01-31 02:23:00,44.4,40.8,30.31,SE,140,0.0,2.0,87,0.00,,---,0.00,VWS V14.01,2013-01-31 10:23:00,
2013-01-31 02:28:00,44.3,40.7,30.31,SE,140,3.0,4.0,87,0.00,,---,0.00,VWS V14.01,2013-01-31 10:28:00,
2013-01-31 02:33:00,44.2,40.6,30.30,SE,138,2.0,4.0,87,0.00,,---,0.00,VWS V14.01,2013-01-31 10:33:00,
2013-01-31 02:39:00,44.2,40.6,30.31,SE,138,2.0,4.0,87,0.00,,---,0.00,VWS V14.01,2013-01-31 10:39:00,
2013-01-31 02:44:00,44.1,40.5,30.31,SE,138,2.0,3.0,87,0.00,,---,0.00,VWS V14.01,2013-01-31 10:44:00,
2013-01-31 02:49:00,44.1,40.5,30.30,SE,137,3.0,3.0,87,0.00,,---,0.00,VWS V14.01,2013-01-31 10:49:00,
2013-01-31 02:54:00,44.1,40.5,30.30,SE,137,2.0,3.0,87,0.00,,---,0.00,VWS V14.01,2013-01-31 10:54:00,
2013-01-31 02:59:00,44.1,40.8,30.30,SE,137,1.0,2.0,88,0.00,,---,0.00,VWS V14.01,2013-01-31 10:59:00,
2013-01-31 03:04:00,44.1,40.8,30.30,SE,137,1.0,2.0,88,0.00,,---,0.00,VWS V14.01,2013-01-31 11:04:00,
2013-01-31 03:10:00,44.0,40.7,30.30,SE,137,2.0,2.0,88,0.00,,---,0.00,VWS V14.01,2013-01-31 11:10:00,
2013-01-31 03:15:00,44.0,41.0,30.29,SE,137,0.0,0.0,89,0.00,,---,0.00,VWS V14.01,2013-01-31 11:15:00,
2013-01-31 03:20:00,44.0,41.0,30.29,SE,137,0.0,0.0,89,0.00,,---,0.00,VWS V14.01,2013-01-31 11:20:00,
2013-01-31 03:26:00,43.8,40.5,30.30,SE,137,1.0,2.0,88,0.00,,---,0.00,VWS V14.01,2013-01-31 11:26:00,
2013-01-31 03:31:00,43.8,41.3,30.30,SE,137,2.0,2.0,91,0.00,,---,0.00,VWS V14.01,2013-01-31 11:31:00,
2013-01-31 03:36:00,43.8,41.1,30.30,SE,137,1.0,3.0,90,0.00,,---,0.00,VWS V14.01,2013-01-31 11:36:00,
2013-01-31 03:41:00,43.7,40.7,30.30,SE,137,2.0,3.0,89,0.00,,---,0.00,VWS V14.01,2013-01-31 11:41:00,
2013-01-31 03:47:00,43.6,40.6,30.29,SE,137,2.0,3.0,89,0.00,,---,0.00,VWS V14.01,2013-01-31 11:47:00,
2013-01-31 03:52:00,43.6,40.6,30.30,SE,137,3.0,3.0,89,0.00,,---,0.00,VWS V14.01,2013-01-31 11:52:00,
2013-01-31 03:57:00,43.5,40.2,30.29,SE,137,2.0,3.0,88,0.00,,---,0.00,VWS V14.01,2013-01-31 11:57:00,
2013-01-31 04:02:00,43.3,40.0,30.30,SE,137,0.0,0.0,88,0.00,,---,0.00,VWS V14.01,2013-01-31 12:02:00,
2013-01-31 04:08:00,43.2,39.9,30.30,SE,137,0.0,0.0,88,0.00,,---,0.00,VWS V14.01,2013-01-31 12:08:00,
2013-01-31 04:13:00,43.0,39.7,30.30,SE,137,0.0,0.0,88,0.00,,---,0.00,VWS V14.01,2013-01-31 12:13:00,
2013-01-31 04:18:00,42.9,39.6,30.30,SE,137,0.0,0.0,88,0.00,,---,0.00,VWS V14.01,2013-01-31 12:18:00,
2013-01-31 04:23:00,42.6,39.3,30.30,SE,137,0.0,0.0,88,0.00,,---,0.00,VWS V14.01,2013-01-31 12:23:00,
2013-01-31 04:28:00,42.4,39.1,30.30,SE,137,0.0,0.0,88,0.00,,---,0.00,VWS V14.01,2013-01-31 12:28:00,
2013-01-31 04:34:00,42.2,39.2,30.30,SE,137,0.0,0.0,89,0.00,,---,0.00,VWS V14.01,2013-01-31 12:34:00,
2013-01-31 04:39:00,42.0,39.0,30.30,SE,137,0.0,0.0,89,0.00,,---,0.00,VWS V14.01,2013-01-31 12:39:00,
2013-01-31 04:44:00,41.9,38.9,30.30,SE,137,0.0,0.0,89,0.00,,---,0.00,VWS V14.01,2013-01-31 12:44:00,
2013-01-31 04:49:00,41.7,38.7,30.30,SE,137,0.0,0.0,89,0.00,,---,0.00,VWS V14.01,2013-01-31 12:49:00,
2013-01-31 04:54:00,41.5,38.5,30.30,SE,137,0.0,0.0,89,0.00,,---,0.00,VWS V14.01,2013-01-31 12:54:00,
2013-01-31 05:00:00,41.3,38.3,30.30,SE,137,0.0,0.0,89,0.00,,---,0.00,VWS V14.01,2013-01-31 13:00:00,
2013-01-31 05:05:00,41.1,38.4,30.30,SE,137,0.0,0.0,90,0.00,,---,0.00,VWS V14.01,2013-01-31 13:05:00,
2013-01-31 05:11:00,40.9,38.2,30.30,SE,137,0.0,0.0,90,0.00,,---,0.00,VWS V14.01,2013-01-31 13:11:00,
2013-01-31 05:16:00,40.7,38.0,30.31,SE,137,0.0,0.0,90,0.00,,---,0.00,VWS V14.01,2013-01-31 13:16:00,
2013-01-31 05:21:00,40.5,37.8,30.31,SE,137,0.0,0.0,90,0.00,,---,0.00,VWS V14.01,2013-01-31 13:21:00,
2013-01-31 05:27:00,40.3,37.6,30.30,SE,137,0.0,0.0,90,0.00,,---,0.00,VWS V14.01,2013-01-31 13:27:00,
2013-01-31 05:32:00,40.2,37.5,30.30,SE,137,0.0,0.0,90,0.00,,---,0.00,VWS V14.01,2013-01-31 13:32:00,
2013-01-31 05:37:00,40.1,37.7,30.31,SE,137,0.0,0.0,91,0.00,,---,0.00,VWS V14.01,2013-01-31 13:37:00,
2013-01-31 05:42:00,40.0,37.6,30.31,SE,137,0.0,0.0,91,0.00,,---,0.00,VWS V14.01,2013-01-31 13:42:00,
2013-01-31 05:47:00,39.8,37.4,30.31,SE,137,0.0,0.0,91,0.00,,---,0.00,VWS V14.01,2013-01-31 13:47:00,
2013-01-31 05:52:00,39.7,37.3,30.31,SE,137,0.0,0.0,91,0.00,,---,0.00,VWS V14.01,2013-01-31 13:52:00,
2013-01-31 05:58:00,39.6,37.2,30.31,SE,137,0.0,0.0,91,0.00,,---,0.00,VWS V14.01,2013-01-31 13:58:00,
2013-01-31 06:03:00,39.5,37.1,30.31,SE,136,0.0,0.0,91,0.00,,---,0.00,VWS V14.01,2013-01-31 14:03:00,
2013-01-31 06:08:00,39.4,37.3,30.31,SE,137,0.0,0.0,92,0.00,,---,0.00,VWS V14.01,2013-01-31 14:08:00,
2013-01-31 06:13:00,39.4,37.3,30.31,SE,137,0.0,0.0,92,0.00,,---,0.00,VWS V14.01,2013-01-31 14:13:00,
2013-01-31 06:18:00,39.5,37.4,30.31,SE,137,0.0,0.0,92,0.00,,---,0.00,VWS V14.01,2013-01-31 14:18:00,
2013-01-31 06:23:00,39.5,37.4,30.31,SE,137,0.0,0.0,92,0.00,,---,0.00,VWS V14.01,2013-01-31 14:23:00,
2013-01-31 06:28:00,39.4,37.3,30.32,SE,137,0.0,0.0,92,0.00,,---,0.00,VWS V14.01,2013-01-31 14:28:00,
2013-01-31 06:33:00,39.4,37.3,30.32,SE,137,0.0,0.0,92,0.00,,---,0.00,VWS V14.01,2013-01-31 14:33:00,
2013-01-31 06:38:00,39.3,37.2,30.32,SE,137,0.0,0.0,92,0.00,,---,0.00,VWS V14.01,2013-01-31 14:38:00,
2013-01-31 06:43:00,39.3,37.2,30.32,SE,137,0.0,0.0,92,0.00,,---,0.00,VWS V14.01,2013-01-31 14:43:00,
2013-01-31 06:48:00,39.2,37.1,30.32,SE,137,0.0,0.0,92,0.00,,---,0.00,VWS V14.01,2013-01-31 14:48:00,
2013-01-31 06:53:00,39.1,37.0,30.32,SE,137,0.0,0.0,92,0.00,,---,0.00,VWS V14.01,2013-01-31 14:53:00,
2013-01-31 06:58:00,39.0,36.9,30.32,SE,137,0.0,0.0,92,0.00,,---,0.00,VWS V14.01,2013-01-31 14:58:00,
2013-01-31 07:04:00,38.9,36.8,30.32,SE,137,0.0,0.0,92,0.00,,---,0.00,VWS V14.01,2013-01-31 15:04:00,
2013-01-31 07:09:00,38.8,36.7,30.32,SE,136,0.0,0.0,92,0.00,,---,0.00,VWS V14.01,2013-01-31 15:09:00,
2013-01-31 07:15:00,38.7,36.6,30.32,SE,137,0.0,0.0,92,0.00,,---,0.00,VWS V14.01,2013-01-31 15:15:00,
2013-01-31 07:21:00,38.6,36.5,30.32,SE,137,0.0,0.0,92,0.00,,---,0.00,VWS V14.01,2013-01-31 15:21:00,
2013-01-31 07:26:00,38.5,36.4,30.33,SE,137,0.0,0.0,92,0.00,,---,0.00,VWS V14.01,2013-01-31 15:26:00,
2013-01-31 07:31:00,38.5,36.4,30.32,SE,137,0.0,0.0,92,0.00,,---,0.00,VWS V14.01,2013-01-31 15:31:00,
2013-01-31 07:36:00,38.5,36.7,30.32,SE,137,0.0,0.0,93,0.00,,---,0.00,VWS V14.01,2013-01-31 15:36:00,
2013-01-31 07:42:00,38.6,36.8,30.33,SE,137,0.0,0.0,93,0.00,,---,0.00,VWS V14.01,2013-01-31 15:42:00,
2013-01-31 07:47:00,38.7,36.8,30.33,SE,137,0.0,0.0,93,0.00,,---,0.00,VWS V14.01,2013-01-31 15:47:00,
2013-01-31 07:52:00,38.9,37.3,30.33,SE,137,0.0,0.0,94,0.00,,---,0.00,VWS V14.01,2013-01-31 15:52:00,
2013-01-31 07:57:00,39.1,37.5,30.33,SE,137,0.0,0.0,94,0.00,,---,0.00,VWS V14.01,2013-01-31 15:57:00,
2013-01-31 08:02:00,39.4,37.8,30.33,SE,136,1.0,3.0,94,0.00,,---,0.00,VWS V14.01,2013-01-31 16:02:00,
2013-01-31 08:07:00,39.8,38.2,30.33,SE,137,0.0,0.0,94,0.00,,---,0.00,VWS V14.01,2013-01-31 16:07:00,
2013-01-31 08:12:00,40.2,38.9,30.33,SE,137,3.0,3.0,95,0.00,,---,0.00,VWS V14.01,2013-01-31 16:12:00,
2013-01-31 08:17:00,40.9,39.6,30.33,SE,137,1.0,3.0,95,0.00,,---,0.00,VWS V14.01,2013-01-31 16:17:00,
2013-01-31 08:22:00,41.5,40.2,30.33,SE,137,0.0,0.0,95,0.00,,---,0.00,VWS V14.01,2013-01-31 16:22:00,
2013-01-31 08:28:00,42.3,40.4,30.33,SE,128,0.0,0.0,93,0.00,,---,0.00,VWS V14.01,2013-01-31 16:28:00,
2013-01-31 08:33:00,43.0,40.6,30.33,SE,128,0.0,0.0,91,0.00,,---,0.00,VWS V14.01,2013-01-31 16:33:00,
2013-01-31 08:38:00,43.8,40.8,30.33,SE,128,0.0,0.0,89,0.00,,---,0.00,VWS V14.01,2013-01-31 16:38:00,
2013-01-31 08:43:00,44.5,40.9,30.33,SE,128,0.0,1.0,87,0.00,,---,0.00,VWS V14.01,2013-01-31 16:43:00,
2013-01-31 08:48:00,45.0,40.8,30.33,SE,126,3.0,3.0,85,0.00,,---,0.00,VWS V14.01,2013-01-31 16:48:00,
2013-01-31 08:53:00,45.4,40.9,30.33,SE,125,0.0,1.0,84,0.00,,---,0.00,VWS V14.01,2013-01-31 16:53:00,
2013-01-31 08:58:00,45.8,40.9,30.33,SE,126,0.0,0.0,83,0.00,,---,0.00,VWS V14.01,2013-01-31 16:58:00,
2013-01-31 09:04:00,46.4,41.5,30.33,SE,125,0.0,0.0,83,0.00,,---,0.00,VWS V14.01,2013-01-31 17:04:00,
2013-01-31 09:09:00,46.9,41.7,30.34,SE,125,0.0,0.0,82,0.00,,---,0.00,VWS V14.01,2013-01-31 17:09:00,
2013-01-31 09:14:00,47.6,42.1,30.34,SE,125,0.0,0.0,81,0.00,,---,0.00,VWS V14.01,2013-01-31 17:14:00,
2013-01-31 09:20:00,48.3,42.4,30.34,SE,126,0.0,0.0,80,0.00,,---,0.00,VWS V14.01,2013-01-31 17:20:00,
2013-01-31 09:25:00,49.5,42.9,30.34,SE,125,0.0,0.0,78,0.00,,---,0.00,VWS V14.01,2013-01-31 17:25:00,
2013-01-31 09:30:00,50.4,43.5,30.34,SE,125,0.0,0.0,77,0.00,,---,0.00,VWS V14.01,2013-01-31 17:30:00,
2013-01-31 09:36:00,51.2,43.2,30.33,SE,125,0.0,0.0,74,0.00,,---,0.00,VWS V14.01,2013-01-31 17:36:00,
2013-01-31 09:42:00,51.9,43.9,30.33,SE,126,0.0,0.0,74,0.00,,---,0.00,VWS V14.01,2013-01-31 17:42:00,
2013-01-31 09:47:00,52.4,43.7,30.33,SE,125,0.0,1.0,72,0.00,,---,0.00,VWS V14.01,2013-01-31 17:47:00,
2013-01-31 09:52:00,52.8,44.0,30.33,SE,125,0.0,0.0,72,0.00,,---,0.00,VWS V14.01,2013-01-31 17:52:00,
2013-01-31 09:58:00,53.3,44.5,30.33,SE,125,0.0,0.0,72,0.00,,---,0.00,VWS V14.01,2013-01-31 17:58:00,
2013-01-31 10:04:00,53.8,44.6,30.33,SE,125,0.0,0.0,71,0.00,,---,0.00,VWS V14.01,2013-01-31 18:04:00,
2013-01-31 10:09:00,54.0,44.8,30.33,SE,126,0.0,0.0,71,0.00,,---,0.00,VWS V14.01,2013-01-31 18:09:00,
2013-01-31 10:14:00,54.1,44.9,30.33,SE,126,0.0,0.0,71,0.00,,---,0.00,VWS V14.01,2013-01-31 18:14:00,
2013-01-31 10:19:00,54.4,44.8,30.33,SE,125,0.0,0.0,70,0.00,,---,0.00,VWS V14.01,2013-01-31 18:19:00,
2013-01-31 10:25:00,54.6,44.3,30.33,SE,125,0.0,0.0,68,0.00,,---,0.00,VWS V14.01,2013-01-31 18:25:00,
2013-01-31 10:30:00,54.6,44.7,30.33,ESE,121,0.0,0.0,69,0.00,,---,0.00,VWS V14.01,2013-01-31 18:30:00,
2013-01-31 10:36:00,54.8,45.2,30.33,North,5,0.0,3.0,70,0.00,,---,0.00,VWS V14.01,2013-01-31 18:36:00,
2013-01-31 10:41:00,55.1,44.7,30.33,NNW,335,0.0,1.0,68,0.00,,---,0.00,VWS V14.01,2013-01-31 18:41:00,
2013-01-31 10:46:00,55.4,45.0,30.33,NNW,327,0.0,0.0,68,0.00,,---,0.00,VWS V14.01,2013-01-31 18:46:00,
2013-01-31 10:51:00,55.6,45.2,30.33,NW,326,0.0,4.0,68,0.00,,---,0.00,VWS V14.01,2013-01-31 18:51:00,
2013-01-31 10:57:00,56.2,45.8,30.32,NW,326,0.0,0.0,68,0.00,,---,0.00,VWS V14.01,2013-01-31 18:57:00,
2013-01-31 11:02:00,56.6,46.2,30.32,NW,325,0.0,0.0,68,0.00,,---,0.00,VWS V14.01,2013-01-31 19:02:00,
2013-01-31 11:07:00,56.8,46.0,30.32,West,277,0.0,0.0,67,0.00,,---,0.00,VWS V14.01,2013-01-31 19:07:00,
2013-01-31 11:12:00,57.0,46.2,30.32,West,277,0.0,4.0,67,0.00,,---,0.00,VWS V14.01,2013-01-31 19:12:00,
2013-01-31 11:17:00,57.1,45.9,30.32,West,277,0.0,0.0,66,0.00,,---,0.00,VWS V14.01,2013-01-31 19:17:00,
2013-01-31 11:22:00,57.0,45.8,30.32,West,277,0.0,0.0,66,0.00,,---,0.00,VWS V14.01,2013-01-31 19:22:00,
2013-01-31 11:27:00,57.1,46.3,30.31,West,277,0.0,3.0,67,0.00,,---,0.00,VWS V14.01,2013-01-31 19:27:00,
2013-01-31 11:33:00,57.5,46.2,30.31,West,276,0.0,0.0,66,0.00,,---,0.00,VWS V14.01,2013-01-31 19:33:00,
2013-01-31 11:38:00,57.8,46.5,30.31,West,277,0.0,0.0,66,0.00,,---,0.00,VWS V14.01,2013-01-31 19:38:00,
2013-01-31 11:43:00,58.1,46.8,30.30,West,277,3.0,4.0,66,0.00,,---,0.00,VWS V14.01,2013-01-31 19:43:00,
2013-01-31 11:49:00,58.2,46.5,30.30,West,275,0.0,0.0,65,0.00,,---,0.00,VWS V14.01,2013-01-31 19:49:00,
2013-01-31 11:54:00,58.4,46.7,30.30,NW,306,0.0,2.0,65,0.00,,---,0.00,VWS V14.01,2013-01-31 19:54:00,
2013-01-31 12:00:00,58.9,47.2,30.29,WNW,303,0.0,5.0,65,0.00,,---,0.00,VWS V14.01,2013-01-31 20:00:00,
2013-01-31 12:05:00,59.0,46.8,30.29,WNW,291,0.0,4.0,64,0.00,,---,0.00,VWS V14.01,2013-01-31 20:05:00,
2013-01-31 12:10:00,59.0,46.4,30.29,WNW,285,0.0,4.0,63,0.00,,---,0.00,VWS V14.01,2013-01-31 20:10:00,
2013-01-31 12:16:00,59.0,46.8,30.28,WNW,284,0.0,0.0,64,0.00,,---,0.00,VWS V14.01,2013-01-31 20:16:00,
2013-01-31 12:21:00,59.4,47.2,30.28,WNW,284,0.0,0.0,64,0.00,,---,0.00,VWS V14.01,2013-01-31 20:21:00,
2013-01-31 12:26:00,59.8,46.8,30.28,WNW,284,4.0,4.0,62,0.00,,---,0.00,VWS V14.01,2013-01-31 20:26:00,
2013-01-31 12:31:00,60.1,47.5,30.28,West,281,3.0,4.0,63,0.00,,---,0.00,VWS V14.01,2013-01-31 20:31:00,
2013-01-31 12:36:00,60.2,47.2,30.27,West,280,0.0,1.0,62,0.00,,---,0.00,VWS V14.01,2013-01-31 20:36:00,
2013-01-31 12:41:00,60.4,47.3,30.27,West,280,0.0,0.0,62,0.00,,---,0.00,VWS V14.01,2013-01-31 20:41:00,
2013-01-31 12:46:00,60.7,47.2,30.27,West,280,0.0,0.0,61,0.00,,---,0.00,VWS V14.01,2013-01-31 20:46:00,
2013-01-31 12:52:00,60.8,47.3,30.27,West,281,0.0,0.0,61,0.00,,---,0.00,VWS V14.01,2013-01-31 20:52:00,
2013-01-31 12:58:00,61.1,47.1,30.27,WNW,286,5.0,5.0,60,0.00,,---,0.00,VWS V14.01,2013-01-31 20:58:00,
2013-01-31 13:03:00,61.0,47.0,30.27,WNW,288,0.0,0.0,60,0.00,,---,0.00,VWS V14.01,2013-01-31 21:03:00,
2013-01-31 13:09:00,61.0,47.0,30.26,WNW,288,0.0,1.0,60,0.00,,---,0.00,VWS V14.01,2013-01-31 21:09:00,
2013-01-31 13:14:00,61.3,46.9,30.26,WNW,290,0.0,0.0,59,0.00,,---,0.00,VWS V14.01,2013-01-31 21:14:00,
2013-01-31 13:19:00,61.4,47.0,30.26,WNW,290,0.0,1.0,59,0.00,,---,0.00,VWS V14.01,2013-01-31 21:19:00,
2013-01-31 13:25:00,61.6,47.6,30.26,WNW,296,4.0,6.0,60,0.00,,---,0.00,VWS V14.01,2013-01-31 21:25:00,
2013-01-31 13:30:00,61.6,47.2,30.25,WNW,301,0.0,4.0,59,0.00,,---,0.00,VWS V14.01,2013-01-31 21:30:00,
2013-01-31 13:35:00,61.6,47.2,30.25,WNW,302,1.0,1.0,59,0.00,,---,0.00,VWS V14.01,2013-01-31 21:35:00,
2013-01-31 13:40:00,61.6,46.7,30.25,WNW,302,0.0,0.0,58,0.00,,---,0.00,VWS V14.01,2013-01-31 21:40:00,
2013-01-31 13:45:00,61.8,47.3,30.25,NW,316,2.0,6.0,59,0.00,,---,0.00,VWS V14.01,2013-01-31 21:45:00,
2013-01-31 13:50:00,61.9,47.4,30.25,NW,315,0.0,1.0,59,0.00,,---,0.00,VWS V14.01,2013-01-31 21:50:00,
2013-01-31 13:55:00,62.0,47.5,30.25,NW,316,0.0,5.0,59,0.00,,---,0.00,VWS V14.01,2013-01-31 21:55:00,
2013-01-31 14:00:00,62.0,47.1,30.25,WNW,290,3.0,5.0,58,0.00,,---,0.00,VWS V14.01,2013-01-31 22:00:00,
2013-01-31 14:06:00,62.2,48.2,30.25,WNW,295,5.0,6.0,60,0.00,,---,0.00,VWS V14.01,2013-01-31 22:06:00,
2013-01-31 14:12:00,62.6,47.6,30.25,WNW,298,0.0,4.0,58,0.00,,---,0.00,VWS V14.01,2013-01-31 22:12:00,
2013-01-31 14:17:00,62.8,47.8,30.25,NW,306,5.0,5.0,58,0.00,,---,0.00,VWS V14.01,2013-01-31 22:17:00,
2013-01-31 14:22:00,62.8,47.8,30.24,NW,313,0.0,1.0,58,0.00,,---,0.00,VWS V14.01,2013-01-31 22:22:00,
2013-01-31 14:27:00,62.8,48.3,30.24,NW,322,3.0,6.0,59,0.00,,---,0.00,VWS V14.01,2013-01-31 22:27:00,
2013-01-31 14:33:00,62.9,48.4,30.24,NW,315,0.0,5.0,59,0.00,,---,0.00,VWS V14.01,2013-01-31 22:33:00,
2013-01-31 14:38:00,62.9,47.9,30.24,West,281,1.0,6.0,58,0.00,,---,0.00,VWS V14.01,2013-01-31 22:38:00,
2013-01-31 14:43:00,62.9,47.9,30.24,West,281,2.0,6.0,58,0.00,,---,0.00,VWS V14.01,2013-01-31 22:43:00,
2013-01-31 14:48:00,62.9,47.9,30.24,WNW,283,4.0,4.0,58,0.00,,---,0.00,VWS V14.01,2013-01-31 22:48:00,
2013-01-31 14:53:00,62.8,47.4,30.24,WNW,295,0.0,4.0,57,0.00,,---,0.00,VWS V14.01,2013-01-31 22:53:00,
2013-01-31 14:58:00,62.9,47.5,30.24,WNW,299,0.0,0.0,57,0.00,,---,0.00,VWS V14.01,2013-01-31 22:58:00,
2013-01-31 15:03:00,63.0,47.5,30.24,WNW,298,0.0,0.0,57,0.00,,---,0.00,VWS V14.01,2013-01-31 23:03:00,
2013-01-31 15:08:00,63.1,47.6,30.24,NW,312,5.0,6.0,57,0.00,,---,0.00,VWS V14.01,2013-01-31 23:08:00,
2013-01-31 15:13:00,62.9,47.5,30.24,NNW,338,0.0,9.0,57,0.00,,---,0.00,VWS V14.01,2013-01-31 23:13:00,
2013-01-31 15:18:00,62.8,47.4,30.24,NW,319,3.0,5.0,57,0.00,,---,0.00,VWS V14.01,2013-01-31 23:18:00,
2013-01-31 15:24:00,62.8,46.4,30.24,NW,322,1.0,5.0,55,0.00,,---,0.00,VWS V14.01,2013-01-31 23:24:00,
2013-01-31 15:29:00,62.7,46.8,30.24,NNW,336,3.0,6.0,56,0.00,,---,0.00,VWS V14.01,2013-01-31 23:29:00,
2013-01-31 15:34:00,62.7,46.8,30.24,NNW,335,4.0,5.0,56,0.00,,---,0.00,VWS V14.01,2013-01-31 23:34:00,
2013-01-31 15:39:00,62.7,46.8,30.23,NNW,337,4.0,5.0,56,0.00,,---,0.00,VWS V14.01,2013-01-31 23:39:00,
2013-01-31 15:44:00,62.6,47.2,30.23,NNW,337,2.0,2.0,57,0.00,,---,0.00,VWS V14.01,2013-01-31 23:44:00,
2013-01-31 15:49:00,62.4,47.0,30.23,NNW,338,3.0,3.0,57,0.00,,---,0.00,VWS V14.01,2013-01-31 23:49:00,
2013-01-31 15:54:00,62.5,47.1,30.23,NNW,338,0.0,1.0,57,0.00,,---,0.00,VWS V14.01,2013-01-31 23:54:00,
2013-01-31 16:00:00,62.4,47.0,30.23,NNW,338,0.0,1.0,57,0.00,,---,0.00,VWS V14.01,2013-02-01 00:00:00,
2013-01-31 16:05:00,62.3,46.9,30.22,NNW,338,0.0,0.0,57,0.00,,---,0.00,VWS V14.01,2013-02-01 00:05:00,
2013-01-31 16:10:00,62.1,46.7,30.22,NNW,338,0.0,0.0,57,0.00,,---,0.00,VWS V14.01,2013-02-01 00:10:00,
2013-01-31 16:15:00,61.9,47.0,30.22,NNW,338,0.0,1.0,58,0.00,,---,0.00,VWS V14.01,2013-02-01 00:15:00,
2013-01-31 16:20:00,61.7,47.2,30.22,NNW,338,0.0,0.0,59,0.00,,---,0.00,VWS V14.01,2013-02-01 00:20:00,
2013-01-31 16:25:00,61.5,47.1,30.22,NNW,338,0.0,1.0,59,0.00,,---,0.00,VWS V14.01,2013-02-01 00:25:00,
2013-01-31 16:30:00,61.4,47.4,30.22,NNW,338,0.0,0.0,60,0.00,,---,0.00,VWS V14.01,2013-02-01 00:30:00,
2013-01-31 16:35:00,61.3,47.8,30.22,NNW,338,1.0,3.0,61,0.00,,---,0.00,VWS V14.01,2013-02-01 00:35:00,
2013-01-31 16:40:00,61.1,47.6,30.22,NNW,338,0.0,0.0,61,0.00,,---,0.00,VWS V14.01,2013-02-01 00:40:00,
2013-01-31 16:45:00,61.0,47.0,30.22,NNW,338,0.0,0.0,60,0.00,,---,0.00,VWS V14.01,2013-02-01 00:45:00,
2013-01-31 16:50:00,60.8,47.7,30.22,NNW,338,0.0,0.0,62,0.00,,---,0.00,VWS V14.01,2013-02-01 00:50:00,
2013-01-31 16:55:00,60.7,47.6,30.22,NNW,338,0.0,0.0,62,0.00,,---,0.00,VWS V14.01,2013-02-01 00:55:00,
2013-01-31 17:00:00,60.5,47.4,30.22,NNW,338,0.0,0.0,62,0.00,,---,0.00,VWS V14.01,2013-02-01 01:00:00,
2013-01-31 17:05:00,60.3,47.2,30.22,NNW,338,0.0,0.0,62,0.00,,---,0.00,VWS V14.01,2013-02-01 01:05:00,
2013-01-31 17:11:00,60.1,47.5,30.22,NNW,338,0.0,0.0,63,0.00,,---,0.00,VWS V14.01,2013-02-01 01:11:00,
2013-01-31 17:16:00,59.9,47.3,30.22,NNW,338,0.0,0.0,63,0.00,,---,0.00,VWS V14.01,2013-02-01 01:16:00,
2013-01-31 17:21:00,59.7,47.1,30.22,NNW,338,0.0,0.0,63,0.00,,---,0.00,VWS V14.01,2013-02-01 01:21:00,
2013-01-31 17:26:00,59.3,47.1,30.22,NNW,338,0.0,0.0,64,0.00,,---,0.00,VWS V14.01,2013-02-01 01:26:00,
2013-01-31 17:31:00,59.0,47.3,30.22,NNW,338,0.0,0.0,65,0.00,,---,0.00,VWS V14.01,2013-02-01 01:31:00,
2013-01-31 17:37:00,58.6,47.3,30.22,NNW,338,0.0,0.0,66,0.00,,---,0.00,VWS V14.01,2013-02-01 01:37:00,
2013-01-31 17:42:00,58.1,47.2,30.22,NNW,338,0.0,0.0,67,0.00,,---,0.00,VWS V14.01,2013-02-01 01:42:00,
2013-01-31 17:47:00,57.6,46.7,30.22,NNW,338,0.0,0.0,67,0.00,,---,0.00,VWS V14.01,2013-02-01 01:47:00,
2013-01-31 17:52:00,57.2,46.8,30.23,NNW,338,0.0,0.0,68,0.00,,---,0.00,VWS V14.01,2013-02-01 01:52:00,
2013-01-31 17:57:00,56.7,46.7,30.22,NNW,338,0.0,0.0,69,0.00,,---,0.00,VWS V14.01,2013-02-01 01:57:00,
2013-01-31 18:02:00,56.3,46.7,30.22,NNW,338,0.0,0.0,70,0.00,,---,0.00,VWS V14.01,2013-02-01 02:02:00,
2013-01-31 18:07:00,55.9,46.7,30.22,NNW,338,0.0,0.0,71,0.00,,---,0.00,VWS V14.01,2013-02-01 02:07:00,
2013-01-31 18:12:00,55.5,46.6,30.22,NNW,338,0.0,0.0,72,0.00,,---,0.00,VWS V14.01,2013-02-01 02:12:00,
2013-01-31 18:17:00,55.0,46.2,30.22,NNW,338,0.0,0.0,72,0.00,,---,0.00,VWS V14.01,2013-02-01 02:17:00,
2013-01-31 18:22:00,54.6,46.1,30.22,NNW,338,0.0,0.0,73,0.00,,---,0.00,VWS V14.01,2013-02-01 02:22:00,
2013-01-31 18:27:00,54.2,46.1,30.22,NNW,338,0.0,0.0,74,0.00,,---,0.00,VWS V14.01,2013-02-01 02:27:00,
2013-01-31 18:32:00,53.9,46.2,30.22,NNW,338,0.0,0.0,75,0.00,,---,0.00,VWS V14.01,2013-02-01 02:32:00,
2013-01-31 18:37:00,53.5,45.8,30.22,NNW,338,0.0,0.0,75,0.00,,---,0.00,VWS V14.01,2013-02-01 02:37:00,
2013-01-31 18:42:00,53.3,45.9,30.22,NNW,338,0.0,0.0,76,0.00,,---,0.00,VWS V14.01,2013-02-01 02:42:00,
2013-01-31 18:47:00,53.0,45.7,30.22,NNW,338,0.0,0.0,76,0.00,,---,0.00,VWS V14.01,2013-02-01 02:47:00,
2013-01-31 18:52:00,52.7,45.7,30.22,NNW,338,0.0,0.0,77,0.00,,---,0.00,VWS V14.01,2013-02-01 02:52:00,
2013-01-31 18:58:00,52.3,45.7,30.22,NNW,338,0.0,0.0,78,0.00,,---,0.00,VWS V14.01,2013-02-01 02:58:00,
2013-01-31 19:04:00,52.0,45.7,30.22,NNW,338,0.0,0.0,79,0.00,,---,0.00,VWS V14.01,2013-02-01 03:04:00,
2013-01-31 19:09:00,51.7,45.4,30.22,NNW,338,0.0,0.0,79,0.00,,---,0.00,VWS V14.01,2013-02-01 03:09:00,
2013-01-31 19:14:00,51.4,45.1,30.22,NNW,338,0.0,0.0,79,0.00,,---,0.00,VWS V14.01,2013-02-01 03:14:00,
2013-01-31 19:20:00,51.1,45.5,30.22,NNW,338,0.0,0.0,81,0.00,,---,0.00,VWS V14.01,2013-02-01 03:20:00,
2013-01-31 19:25:00,50.8,45.2,30.22,NNW,338,0.0,0.0,81,0.00,,---,0.00,VWS V14.01,2013-02-01 03:25:00,
2013-01-31 19:30:00,50.6,45.0,30.22,NNW,338,0.0,0.0,81,0.00,,---,0.00,VWS V14.01,2013-02-01 03:30:00,
2013-01-31 19:35:00,50.3,44.7,30.22,NNW,338,0.0,0.0,81,0.00,,---,0.00,VWS V14.01,2013-02-01 03:35:00,
2013-01-31 19:40:00,50.1,44.8,30.22,NNW,338,0.0,0.0,82,0.00,,---,0.00,VWS V14.01,2013-02-01 03:40:00,
2013-01-31 19:45:00,49.8,44.5,30.22,NNW,338,0.0,0.0,82,0.00,,---,0.00,VWS V14.01,2013-02-01 03:45:00,
2013-01-31 19:50:00,49.7,44.8,30.22,NNW,338,0.0,0.0,83,0.00,,---,0.00,VWS V14.01,2013-02-01 03:50:00,
2013-01-31 19:55:00,49.5,44.6,30.22,NNW,338,0.0,0.0,83,0.00,,---,0.00,VWS V14.01,2013-02-01 03:55:00,
2013-01-31 20:00:00,49.3,44.7,30.22,NNW,338,0.0,0.0,84,0.00,,---,0.00,VWS V14.01,2013-02-01 04:00:00,
2013-01-31 20:05:00,49.1,44.5,30.22,NNW,338,0.0,0.0,84,0.00,,---,0.00,VWS V14.01,2013-02-01 04:05:00,
2013-01-31 20:11:00,48.9,44.3,30.22,NNW,338,0.0,0.0,84,0.00,,---,0.00,VWS V14.01,2013-02-01 04:11:00,
2013-01-31 20:17:00,48.7,44.4,30.22,NNW,338,0.0,0.0,85,0.00,,---,0.00,VWS V14.01,2013-02-01 04:17:00,
2013-01-31 20:22:00,48.6,44.3,30.22,NNW,338,0.0,0.0,85,0.00,,---,0.00,VWS V14.01,2013-02-01 04:22:00,
2013-01-31 20:27:00,48.6,44.6,30.22,NNW,338,0.0,0.0,86,0.00,,---,0.00,VWS V14.01,2013-02-01 04:27:00,
2013-01-31 20:32:00,48.6,44.9,30.22,NNW,338,2.0,2.0,87,0.00,,---,0.00,VWS V14.01,2013-02-01 04:32:00,
2013-01-31 20:37:00,48.7,44.7,30.22,NNW,338,2.0,2.0,86,0.00,,---,0.00,VWS V14.01,2013-02-01 04:37:00,
2013-01-31 20:43:00,48.7,44.7,30.22,NNW,338,0.0,0.0,86,0.00,,---,0.00,VWS V14.01,2013-02-01 04:43:00,
2013-01-31 20:48:00,48.8,44.8,30.22,NNW,338,0.0,0.0,86,0.00,,---,0.00,VWS V14.01,2013-02-01 04:48:00,
2013-01-31 20:53:00,48.7,44.7,30.22,NNW,338,0.0,0.0,86,0.00,,---,0.00,VWS V14.01,2013-02-01 04:53:00,
2013-01-31 20:58:00,48.6,44.6,30.22,NNW,338,2.0,3.0,86,0.00,,---,0.00,VWS V14.01,2013-02-01 04:58:00,
2013-01-31 21:01:00,48.6,44.3,30.23,NNW,338,1.0,2.0,85,0.00,,---,0.00,VWS V14.01,2013-02-01 05:01:00,
2013-01-31 21:04:00,48.5,44.2,30.23,NNW,338,0.0,0.0,85,0.00,,---,0.00,VWS V14.01,2013-02-01 05:04:00,
2013-01-31 21:06:00,48.4,44.1,30.23,NNW,338,0.0,0.0,85,0.00,,---,0.00,VWS V14.01,2013-02-01 05:06:00,
2013-01-31 21:10:00,48.3,44.0,30.23,NNW,338,0.0,0.0,85,0.00,,---,0.00,VWS V14.01,2013-02-01 05:10:00,
2013-01-31 21:16:00,48.1,43.8,30.23,NNW,338,1.0,2.0,85,0.00,,---,0.00,VWS V14.01,2013-02-01 05:16:00,
2013-01-31 21:21:00,48.0,44.0,30.23,NNW,338,2.0,3.0,86,0.00,,---,0.00,VWS V14.01,2013-02-01 05:21:00,
2013-01-31 21:26:00,47.8,43.8,30.23,NNW,338,0.0,0.0,86,0.00,,---,0.00,VWS V14.01,2013-02-01 05:26:00,
2013-01-31 21:31:00,47.7,43.7,30.23,NNW,338,1.0,2.0,86,0.00,,---,0.00,VWS V14.01,2013-02-01 05:31:00,
2013-01-31 21:36:00,47.6,43.6,30.23,NNW,338,1.0,2.0,86,0.00,,---,0.00,VWS V14.01,2013-02-01 05:36:00,
2013-01-31 21:41:00,47.5,43.5,30.23,NNW,338,0.0,0.0,86,0.00,,---,0.00,VWS V14.01,2013-02-01 05:41:00,
2013-01-31 21:47:00,47.3,43.3,30.23,NNW,338,1.0,2.0,86,0.00,,---,0.00,VWS V14.01,2013-02-01 05:47:00,
2013-01-31 21:52:00,47.2,43.2,30.23,NNW,338,1.0,2.0,86,0.00,,---,0.00,VWS V14.01,2013-02-01 05:52:00,
2013-01-31 21:57:00,47.1,43.4,30.23,NNW,338,2.0,2.0,87,0.00,,---,0.00,VWS V14.01,2013-02-01 05:57:00,
2013-01-31 22:03:00,47.0,43.3,30.22,NNW,338,1.0,2.0,87,0.00,,---,0.00,VWS V14.01,2013-02-01 06:03:00,
2013-01-31 22:08:00,46.9,43.2,30.22,NNW,338,0.0,0.0,87,0.00,,---,0.00,VWS V14.01,2013-02-01 06:08:00,
2013-01-31 22:14:00,46.8,43.1,30.22,NNW,338,0.0,0.0,87,0.00,,---,0.00,VWS V14.01,2013-02-01 06:14:00,
2013-01-31 22:19:00,46.7,43.0,30.23,NNW,338,0.0,0.0,87,0.00,,---,0.00,VWS V14.01,2013-02-01 06:19:00,
2013-01-31 22:24:00,46.6,42.9,30.22,NNW,338,0.0,0.0,87,0.00,,---,0.00,VWS V14.01,2013-02-01 06:24:00,
2013-01-31 22:29:00,46.5,42.8,30.22,NNW,338,0.0,0.0,87,0.00,,---,0.00,VWS V14.01,2013-02-01 06:29:00,
2013-01-31 22:34:00,46.3,42.7,30.22,NNW,338,0.0,0.0,87,0.00,,---,0.00,VWS V14.01,2013-02-01 06:34:00,
2013-01-31 22:39:00,46.1,42.5,30.22,NNW,338,0.0,0.0,87,0.00,,---,0.00,VWS V14.01,2013-02-01 06:39:00,
2013-01-31 22:45:00,45.9,42.3,30.22,NNW,338,0.0,0.0,87,0.00,,---,0.00,VWS V14.01,2013-02-01 06:45:00,
2013-01-31 22:50:00,45.8,42.2,30.22,NNW,338,0.0,0.0,87,0.00,,---,0.00,VWS V14.01,2013-02-01 06:50:00,
2013-01-31 22:55:00,45.6,42.0,30.23,NNW,338,0.0,0.0,87,0.00,,---,0.00,VWS V14.01,2013-02-01 06:55:00,
2013-01-31 23:00:00,45.5,42.2,30.22,NNW,338,0.0,0.0,88,0.00,,---,0.00,VWS V14.01,2013-02-01 07:00:00,
2013-01-31 23:06:00,45.4,42.1,30.23,NNW,338,0.0,2.0,88,0.00,,---,0.00,VWS V14.01,2013-02-01 07:06:00,
2013-01-31 23:11:00,45.4,42.1,30.23,NNW,338,0.0,0.0,88,0.00,,---,0.00,VWS V14.01,2013-02-01 07:11:00,
2013-01-31 23:16:00,45.2,41.9,30.23,NNW,338,0.0,0.0,88,0.00,,---,0.00,VWS V14.01,2013-02-01 07:16:00,
2013-01-31 23:21:00,45.1,41.8,30.22,NNW,338,0.0,0.0,88,0.00,,---,0.00,VWS V14.01,2013-02-01 07:21:00,
2013-01-31 23:27:00,45.0,41.7,30.23,NNW,338,0.0,0.0,88,0.00,,---,0.00,VWS V14.01,2013-02-01 07:27:00,
2013-01-31 23:32:00,44.8,41.5,30.22,NNW,338,0.0,0.0,88,0.00,,---,0.00,VWS V14.01,2013-02-01 07:32:00,
2013-01-31 23:38:00,44.6,41.3,30.22,NNW,338,0.0,0.0,88,0.00,,---,0.00,VWS V14.01,2013-02-01 07:38:00,
2013-01-31 23:43:00,44.4,41.1,30.22,NNW,338,0.0,0.0,88,0.00,,---,0.00,VWS V14.01,2013-02-01 07:43:00,
2013-01-31 23:48:00,44.2,41.2,30.22,NNW,338,0.0,0.0,89,0.00,,---,0.00,VWS V14.01,2013-02-01 07:48:00,
2013-01-31 23:54:00,44.1,41.1,30.22,NNW,338,0.0,0.0,89,0.00,,---,0.00,VWS V14.01,2013-02-01 07:54:00,
2013-01-31 23:59:00,44.0,41.0,30.22,NNW,338,0.0,0.0,89,0.00,,---,0.00,VWS V14.01,2013-02-01 07:59:00,